createdAt,value
2017-08-27T00:00:04.278Z,0
2017-08-27T00:00:44.808Z,0
2017-08-27T00:01:25.376Z,0
2017-08-27T00:02:05.934Z,0
2017-08-27T00:02:46.505Z,0
2017-08-27T00:03:27.082Z,0
2017-08-27T00:04:07.644Z,0
2017-08-27T00:04:48.224Z,0
2017-08-27T00:05:28.781Z,0
2017-08-27T00:06:10.163Z,0
2017-08-27T00:06:50.752Z,0
2017-08-27T00:07:31.299Z,0
2017-08-27T00:08:11.881Z,0
2017-08-27T00:08:52.435Z,0
2017-08-27T00:09:32.987Z,0
2017-08-27T00:10:13.561Z,0
2017-08-27T00:10:54.131Z,0
2017-08-27T00:11:34.703Z,0
2017-08-27T00:12:15.249Z,0
2017-08-27T00:12:55.818Z,0
2017-08-27T00:13:36.402Z,0
2017-08-27T00:14:16.966Z,0
2017-08-27T00:14:58.456Z,0
2017-08-27T00:15:39.035Z,0
2017-08-27T00:16:19.695Z,0
2017-08-27T00:17:00.251Z,0
2017-08-27T00:17:40.813Z,0
2017-08-27T00:18:21.371Z,0
2017-08-27T00:19:01.961Z,0
2017-08-27T00:19:42.526Z,0
2017-08-27T00:20:23.175Z,0
2017-08-27T00:21:03.729Z,0
2017-08-27T00:21:44.319Z,0
2017-08-27T00:22:24.879Z,0
2017-08-27T00:23:05.473Z,0
2017-08-27T00:23:45.978Z,0
2017-08-27T00:24:26.548Z,0
2017-08-27T00:25:07.115Z,0
2017-08-27T00:25:47.691Z,0
2017-08-27T00:26:28.250Z,0
2017-08-27T00:27:08.879Z,0
2017-08-27T00:27:49.501Z,0
2017-08-27T00:28:30.065Z,0
2017-08-27T00:29:10.626Z,0
2017-08-27T00:29:51.177Z,0
2017-08-27T00:30:31.751Z,0
2017-08-27T00:31:12.329Z,0
2017-08-27T00:31:53.048Z,0
2017-08-27T00:32:33.623Z,0
2017-08-27T00:33:14.166Z,0
2017-08-27T00:33:54.747Z,0
2017-08-27T00:34:35.310Z,0
2017-08-27T00:35:15.867Z,0
2017-08-27T00:35:56.654Z,0
2017-08-27T00:36:37.041Z,0
2017-08-27T00:37:17.546Z,0
2017-08-27T00:37:58.112Z,0
2017-08-27T00:38:38.848Z,0
2017-08-27T00:39:19.484Z,0
2017-08-27T00:40:00.019Z,0
2017-08-27T00:40:40.575Z,0
2017-08-27T00:41:21.157Z,0
2017-08-27T00:42:01.713Z,0
2017-08-27T00:42:42.300Z,0
2017-08-27T00:43:22.869Z,0
2017-08-27T00:44:03.426Z,0
2017-08-27T00:44:43.987Z,0
2017-08-27T00:45:24.557Z,0
2017-08-27T00:46:05.117Z,0
2017-08-27T00:46:45.683Z,0
2017-08-27T00:47:26.256Z,0
2017-08-27T00:48:06.813Z,0
2017-08-27T00:48:47.383Z,0
2017-08-27T00:49:27.944Z,0
2017-08-27T00:50:08.513Z,0
2017-08-27T00:50:49.072Z,0
2017-08-27T00:51:29.642Z,0
2017-08-27T00:52:10.197Z,0
2017-08-27T00:52:50.767Z,0
2017-08-27T00:53:31.337Z,0
2017-08-27T00:54:11.907Z,0
2017-08-27T00:54:52.476Z,0
2017-08-27T00:55:33.044Z,0
2017-08-27T00:56:13.618Z,0
2017-08-27T00:56:54.190Z,0
2017-08-27T00:57:34.785Z,0
2017-08-27T00:58:15.337Z,0
2017-08-27T00:58:55.889Z,0
2017-08-27T00:59:36.451Z,0
2017-08-27T01:00:17.022Z,0
2017-08-27T01:00:57.603Z,0
2017-08-27T01:01:38.176Z,0
2017-08-27T01:02:18.748Z,0
2017-08-27T01:02:59.593Z,0
2017-08-27T01:03:40.161Z,0
2017-08-27T01:04:20.744Z,0
2017-08-27T01:05:01.318Z,0
2017-08-27T01:05:41.890Z,0
2017-08-27T01:06:22.453Z,0
2017-08-27T01:07:03.022Z,0
2017-08-27T01:07:43.590Z,0
2017-08-27T01:08:24.169Z,0
2017-08-27T01:09:04.751Z,0
2017-08-27T01:09:45.317Z,0
2017-08-27T01:10:25.881Z,0
2017-08-27T01:11:06.444Z,0
2017-08-27T01:11:46.998Z,0
2017-08-27T01:12:27.550Z,0
2017-08-27T01:13:08.129Z,0
2017-08-27T01:13:48.694Z,0
2017-08-27T01:14:29.265Z,0
2017-08-27T01:15:09.835Z,0
2017-08-27T01:15:50.398Z,0
2017-08-27T01:16:30.970Z,0
2017-08-27T01:17:11.564Z,0
2017-08-27T01:17:52.113Z,0
2017-08-27T01:18:32.683Z,0
2017-08-27T01:19:13.277Z,0
2017-08-27T01:19:53.848Z,0
2017-08-27T01:20:34.416Z,0
2017-08-27T01:21:14.985Z,0
2017-08-27T01:21:55.546Z,0
2017-08-27T01:22:36.131Z,0
2017-08-27T01:23:16.702Z,0
2017-08-27T01:23:57.260Z,0
2017-08-27T01:24:37.827Z,0
2017-08-27T01:25:18.436Z,0
2017-08-27T01:25:58.984Z,0
2017-08-27T01:26:39.540Z,0
2017-08-27T01:27:20.118Z,0
2017-08-27T01:28:00.686Z,0
2017-08-27T01:28:41.267Z,0
2017-08-27T01:29:21.809Z,0
2017-08-27T01:30:02.366Z,0
2017-08-27T01:30:42.943Z,0
2017-08-27T01:31:23.513Z,0
2017-08-27T01:32:04.076Z,0
2017-08-27T01:32:44.651Z,0
2017-08-27T01:33:25.208Z,0
2017-08-27T01:34:05.776Z,0
2017-08-27T01:34:46.356Z,0
2017-08-27T01:35:26.934Z,0
2017-08-27T01:36:07.509Z,0
2017-08-27T01:36:48.069Z,0
2017-08-27T01:37:28.620Z,0
2017-08-27T01:38:09.187Z,0
2017-08-27T01:38:49.745Z,0
2017-08-27T01:39:30.308Z,0
2017-08-27T01:40:10.873Z,0
2017-08-27T01:40:51.445Z,0
2017-08-27T01:41:32.004Z,0
2017-08-27T01:42:12.564Z,0
2017-08-27T01:42:53.131Z,0
2017-08-27T01:43:33.803Z,0
2017-08-27T01:44:14.375Z,0
2017-08-27T01:44:54.947Z,0
2017-08-27T01:45:35.516Z,0
2017-08-27T01:46:16.082Z,0
2017-08-27T01:46:56.653Z,0
2017-08-27T01:47:37.222Z,0
2017-08-27T01:48:17.804Z,0
2017-08-27T01:48:58.375Z,0
2017-08-27T01:49:38.959Z,0
2017-08-27T01:50:19.509Z,0
2017-08-27T01:51:00.078Z,0
2017-08-27T01:51:40.653Z,0
2017-08-27T01:52:21.220Z,0
2017-08-27T01:53:01.794Z,0
2017-08-27T01:53:42.350Z,0
2017-08-27T01:54:22.932Z,0
2017-08-27T01:55:03.514Z,0
2017-08-27T01:55:44.075Z,0
2017-08-27T01:56:24.663Z,0
2017-08-27T01:57:05.214Z,0
2017-08-27T01:57:45.799Z,0
2017-08-27T01:58:26.360Z,0
2017-08-27T01:59:06.903Z,0
2017-08-27T01:59:47.480Z,0
2017-08-27T02:00:28.043Z,0
2017-08-27T02:01:08.616Z,0
2017-08-27T02:01:49.188Z,0
2017-08-27T02:02:29.779Z,0
2017-08-27T02:03:10.334Z,0
2017-08-27T02:03:50.895Z,0
2017-08-27T02:04:31.464Z,0
2017-08-27T02:05:12.046Z,0
2017-08-27T02:05:52.618Z,0
2017-08-27T02:06:33.195Z,0
2017-08-27T02:07:13.765Z,0
2017-08-27T02:07:54.322Z,0
2017-08-27T02:08:34.896Z,0
2017-08-27T02:09:15.472Z,0
2017-08-27T02:09:56.035Z,0
2017-08-27T02:10:36.616Z,0
2017-08-27T02:11:17.197Z,0
2017-08-27T02:11:57.765Z,0
2017-08-27T02:12:38.341Z,0
2017-08-27T02:13:18.916Z,0
2017-08-27T02:13:59.494Z,0
2017-08-27T02:14:40.048Z,0
2017-08-27T02:15:20.642Z,0
2017-08-27T02:16:01.218Z,0
2017-08-27T02:16:41.772Z,0
2017-08-27T02:17:22.339Z,0
2017-08-27T02:18:02.900Z,0
2017-08-27T02:18:43.453Z,0
2017-08-27T02:19:24.002Z,0
2017-08-27T02:20:04.576Z,0
2017-08-27T02:20:45.149Z,0
2017-08-27T02:21:25.714Z,0
2017-08-27T02:22:06.278Z,0
2017-08-27T02:22:46.848Z,0
2017-08-27T02:23:27.418Z,0
2017-08-27T02:24:07.979Z,0
2017-08-27T02:24:48.552Z,0
2017-08-27T02:25:29.108Z,0
2017-08-27T02:26:09.656Z,0
2017-08-27T02:26:50.224Z,0
2017-08-27T02:27:30.789Z,0
2017-08-27T02:28:11.341Z,0
2017-08-27T02:28:51.926Z,0
2017-08-27T02:29:32.491Z,0
2017-08-27T02:30:13.046Z,0
2017-08-27T02:30:53.623Z,0
2017-08-27T02:31:34.186Z,0
2017-08-27T02:32:14.756Z,0
2017-08-27T02:32:55.307Z,0
2017-08-27T02:33:35.870Z,0
2017-08-27T02:34:16.449Z,0
2017-08-27T02:34:57.013Z,0
2017-08-27T02:35:37.575Z,0
2017-08-27T02:36:18.134Z,0
2017-08-27T02:36:58.724Z,0
2017-08-27T02:37:39.292Z,0
2017-08-27T02:38:19.856Z,0
2017-08-27T02:39:00.411Z,0
2017-08-27T02:39:40.971Z,0
2017-08-27T02:40:21.550Z,0
2017-08-27T02:41:02.105Z,0
2017-08-27T02:41:42.677Z,0
2017-08-27T02:42:23.227Z,0
2017-08-27T02:43:03.814Z,0
2017-08-27T02:43:44.383Z,0
2017-08-27T02:44:24.945Z,0
2017-08-27T02:45:05.504Z,0
2017-08-27T02:45:46.062Z,0
2017-08-27T02:46:26.610Z,0
2017-08-27T02:47:07.192Z,0
2017-08-27T02:47:47.772Z,0
2017-08-27T02:48:28.327Z,0
2017-08-27T02:49:08.921Z,0
2017-08-27T02:49:49.466Z,0
2017-08-27T02:50:30.021Z,0
2017-08-27T02:51:10.591Z,0
2017-08-27T02:51:51.144Z,0
2017-08-27T02:52:31.723Z,0
2017-08-27T02:53:12.286Z,0
2017-08-27T02:53:52.844Z,0
2017-08-27T02:54:33.378Z,0
2017-08-27T02:55:13.944Z,0
2017-08-27T02:55:54.513Z,0
2017-08-27T02:56:35.064Z,0
2017-08-27T02:57:15.629Z,0
2017-08-27T02:57:56.213Z,0
2017-08-27T02:58:36.741Z,0
2017-08-27T02:59:17.294Z,0
2017-08-27T02:59:57.849Z,0
2017-08-27T03:00:38.417Z,0
2017-08-27T03:01:18.979Z,0
2017-08-27T03:01:59.527Z,0
2017-08-27T03:02:40.105Z,0
2017-08-27T03:03:20.690Z,0
2017-08-27T03:04:01.268Z,0
2017-08-27T03:04:41.821Z,0
2017-08-27T03:05:22.397Z,0
2017-08-27T03:06:02.961Z,0
2017-08-27T03:06:43.508Z,0
2017-08-27T03:07:24.086Z,0
2017-08-27T03:08:04.643Z,0
2017-08-27T03:08:45.188Z,0
2017-08-27T03:09:25.779Z,0
2017-08-27T03:10:06.318Z,0
2017-08-27T03:10:46.845Z,0
2017-08-27T03:11:27.438Z,0
2017-08-27T03:12:07.998Z,0
2017-08-27T03:12:48.571Z,0
2017-08-27T03:13:29.125Z,0
2017-08-27T03:14:09.670Z,0
2017-08-27T03:14:50.255Z,0
2017-08-27T03:15:30.801Z,0
2017-08-27T03:16:11.308Z,0
2017-08-27T03:16:51.878Z,0
2017-08-27T03:17:32.439Z,0
2017-08-27T03:18:12.986Z,0
2017-08-27T03:18:53.554Z,0
2017-08-27T03:19:34.112Z,0
2017-08-27T03:20:14.707Z,0
2017-08-27T03:20:55.269Z,0
2017-08-27T03:21:35.818Z,0
2017-08-27T03:22:16.379Z,0
2017-08-27T03:22:56.929Z,0
2017-08-27T03:23:37.490Z,0
2017-08-27T03:24:18.069Z,0
2017-08-27T03:24:58.628Z,0
2017-08-27T03:25:39.202Z,0
2017-08-27T03:26:19.768Z,0
2017-08-27T03:27:00.331Z,0
2017-08-27T03:27:40.883Z,0
2017-08-27T03:28:21.453Z,0
2017-08-27T03:29:02.010Z,0
2017-08-27T03:29:42.540Z,0
2017-08-27T03:30:23.085Z,0
2017-08-27T03:31:03.633Z,0
2017-08-27T03:31:44.152Z,0
2017-08-27T03:32:24.698Z,0
2017-08-27T03:33:05.220Z,0
2017-08-27T03:33:45.706Z,0
2017-08-27T03:34:26.281Z,0
2017-08-27T03:35:06.827Z,0
2017-08-27T03:35:47.371Z,0
2017-08-27T03:36:28.014Z,0
2017-08-27T03:37:08.483Z,0
2017-08-27T03:37:49.101Z,0
2017-08-27T03:38:29.627Z,0
2017-08-27T03:39:10.155Z,0
2017-08-27T03:39:50.720Z,0
2017-08-27T03:40:31.286Z,0
2017-08-27T03:41:11.818Z,0
2017-08-27T03:41:52.347Z,0
2017-08-27T03:42:32.900Z,0
2017-08-27T03:43:13.443Z,0
2017-08-27T03:43:53.989Z,0
2017-08-27T03:44:34.526Z,0
2017-08-27T03:45:15.078Z,0
2017-08-27T03:45:55.648Z,0
2017-08-27T03:46:36.200Z,0
2017-08-27T03:47:16.779Z,0
2017-08-27T03:47:57.331Z,0
2017-08-27T03:48:37.899Z,0
2017-08-27T03:49:18.455Z,0
2017-08-27T03:49:59.014Z,0
2017-08-27T03:50:39.565Z,0
2017-08-27T03:51:20.136Z,0
2017-08-27T03:52:00.723Z,0
2017-08-27T03:52:41.282Z,0
2017-08-27T03:53:21.842Z,0
2017-08-27T03:54:02.418Z,0
2017-08-27T03:54:42.977Z,0
2017-08-27T03:55:23.527Z,0
2017-08-27T03:56:04.078Z,0
2017-08-27T03:56:44.653Z,0
2017-08-27T03:57:25.214Z,0
2017-08-27T03:58:05.796Z,0
2017-08-27T03:58:46.354Z,0
2017-08-27T03:59:26.940Z,0
2017-08-27T04:00:07.503Z,0
2017-08-27T04:00:48.064Z,0
2017-08-27T04:01:28.625Z,0
2017-08-27T04:02:09.194Z,0
2017-08-27T04:02:49.728Z,0
2017-08-27T04:03:30.285Z,0
2017-08-27T04:04:10.829Z,0
2017-08-27T04:04:51.372Z,0
2017-08-27T04:05:31.924Z,0
2017-08-27T04:06:12.470Z,0
2017-08-27T04:06:53.039Z,0
2017-08-27T04:07:33.599Z,0
2017-08-27T04:08:14.145Z,0
2017-08-27T04:08:54.699Z,0
2017-08-27T04:09:35.253Z,0
2017-08-27T04:10:16.909Z,0
2017-08-27T04:10:57.456Z,0
2017-08-27T04:11:37.993Z,0
2017-08-27T04:12:18.550Z,0
2017-08-27T04:12:59.103Z,4
2017-08-27T04:13:39.655Z,0
2017-08-27T04:14:20.223Z,0
2017-08-27T04:15:00.812Z,0
2017-08-27T04:15:41.382Z,0
2017-08-27T04:16:21.953Z,0
2017-08-27T04:17:02.515Z,4
2017-08-27T04:17:43.083Z,4
2017-08-27T04:18:23.643Z,4
2017-08-27T04:19:04.209Z,0
2017-08-27T04:19:44.768Z,4
2017-08-27T04:20:25.355Z,0
2017-08-27T04:21:05.934Z,4
2017-08-27T04:21:46.499Z,4
2017-08-27T04:22:27.088Z,8
2017-08-27T04:23:07.658Z,8
2017-08-27T04:23:48.253Z,8
2017-08-27T04:24:28.768Z,8
2017-08-27T04:25:09.341Z,8
2017-08-27T04:25:49.898Z,8
2017-08-27T04:26:30.476Z,8
2017-08-27T04:27:11.046Z,8
2017-08-27T04:27:51.617Z,12
2017-08-27T04:28:32.181Z,8
2017-08-27T04:29:12.765Z,8
2017-08-27T04:29:53.329Z,12
2017-08-27T04:30:33.897Z,8
2017-08-27T04:31:14.466Z,12
2017-08-27T04:31:55.054Z,12
2017-08-27T04:32:35.622Z,12
2017-08-27T04:33:16.196Z,16
2017-08-27T04:33:56.773Z,16
2017-08-27T04:34:37.345Z,16
2017-08-27T04:35:17.900Z,20
2017-08-27T04:35:58.510Z,20
2017-08-27T04:36:39.036Z,20
2017-08-27T04:37:19.598Z,28
2017-08-27T04:38:00.158Z,28
2017-08-27T04:38:40.723Z,32
2017-08-27T04:39:21.298Z,36
2017-08-27T04:40:01.869Z,36
2017-08-27T04:40:42.435Z,44
2017-08-27T04:41:23.028Z,44
2017-08-27T04:42:03.531Z,52
2017-08-27T04:42:44.093Z,52
2017-08-27T04:43:24.666Z,60
2017-08-27T04:44:05.222Z,64
2017-08-27T04:44:45.771Z,72
2017-08-27T04:45:26.342Z,76
2017-08-27T04:46:06.901Z,80
2017-08-27T04:46:47.432Z,84
2017-08-27T04:47:27.988Z,96
2017-08-27T04:48:08.528Z,100
2017-08-27T04:48:49.075Z,104
2017-08-27T04:49:29.652Z,112
2017-08-27T04:50:10.164Z,120
2017-08-27T04:50:50.755Z,124
2017-08-27T04:51:31.343Z,132
2017-08-27T04:52:11.858Z,132
2017-08-27T04:52:52.410Z,140
2017-08-27T04:53:33.007Z,140
2017-08-27T04:54:13.544Z,148
2017-08-27T04:54:54.118Z,152
2017-08-27T04:55:34.673Z,156
2017-08-27T04:56:15.234Z,160
2017-08-27T04:56:55.775Z,168
2017-08-27T04:57:36.342Z,176
2017-08-27T04:58:16.867Z,180
2017-08-27T04:58:57.372Z,188
2017-08-27T04:59:37.922Z,196
2017-08-27T05:00:18.473Z,204
2017-08-27T05:00:59.009Z,212
2017-08-27T05:01:39.604Z,220
2017-08-27T05:02:20.114Z,228
2017-08-27T05:03:00.630Z,240
2017-08-27T05:03:41.176Z,248
2017-08-27T05:04:21.693Z,260
2017-08-27T05:05:02.204Z,276
2017-08-27T05:05:42.781Z,288
2017-08-27T05:06:23.264Z,300
2017-08-27T05:07:03.790Z,312
2017-08-27T05:07:44.350Z,328
2017-08-27T05:08:24.922Z,344
2017-08-27T05:09:05.508Z,356
2017-08-27T05:09:46.022Z,364
2017-08-27T05:10:26.555Z,376
2017-08-27T05:11:07.128Z,384
2017-08-27T05:11:47.689Z,396
2017-08-27T05:12:28.242Z,400
2017-08-27T05:13:08.819Z,408
2017-08-27T05:13:49.379Z,412
2017-08-27T05:14:29.945Z,420
2017-08-27T05:15:10.519Z,424
2017-08-27T05:15:51.063Z,432
2017-08-27T05:16:31.642Z,444
2017-08-27T05:17:12.206Z,456
2017-08-27T05:17:52.766Z,460
2017-08-27T05:18:33.345Z,460
2017-08-27T05:19:13.902Z,464
2017-08-27T05:19:54.462Z,464
2017-08-27T05:20:35.026Z,464
2017-08-27T05:21:15.579Z,460
2017-08-27T05:21:56.137Z,452
2017-08-27T05:22:36.707Z,448
2017-08-27T05:23:17.259Z,440
2017-08-27T05:23:57.813Z,440
2017-08-27T05:24:38.355Z,440
2017-08-27T05:25:18.899Z,436
2017-08-27T05:25:59.462Z,440
2017-08-27T05:26:40.026Z,440
2017-08-27T05:27:20.574Z,436
2017-08-27T05:28:01.135Z,436
2017-08-27T05:28:41.719Z,436
2017-08-27T05:29:22.289Z,432
2017-08-27T05:30:02.859Z,432
2017-08-27T05:30:43.421Z,428
2017-08-27T05:31:23.997Z,428
2017-08-27T05:32:04.577Z,436
2017-08-27T05:32:45.139Z,440
2017-08-27T05:33:25.702Z,444
2017-08-27T05:34:06.270Z,444
2017-08-27T05:34:46.811Z,444
2017-08-27T05:35:27.393Z,440
2017-08-27T05:36:07.925Z,436
2017-08-27T05:36:48.490Z,432
2017-08-27T05:37:29.069Z,424
2017-08-27T05:38:09.634Z,412
2017-08-27T05:38:50.209Z,396
2017-08-27T05:39:30.771Z,380
2017-08-27T05:40:11.331Z,364
2017-08-27T05:40:51.912Z,352
2017-08-27T05:41:32.427Z,340
2017-08-27T05:42:12.982Z,332
2017-08-27T05:42:53.545Z,316
2017-08-27T05:43:34.082Z,312
2017-08-27T05:44:14.650Z,304
2017-08-27T05:44:55.233Z,296
2017-08-27T05:45:35.791Z,288
2017-08-27T05:46:16.364Z,284
2017-08-27T05:46:56.932Z,276
2017-08-27T05:47:37.493Z,276
2017-08-27T05:48:18.079Z,272
2017-08-27T05:48:58.652Z,276
2017-08-27T05:49:39.228Z,280
2017-08-27T05:50:19.801Z,280
2017-08-27T05:51:00.370Z,288
2017-08-27T05:51:40.930Z,296
2017-08-27T05:52:21.509Z,304
2017-08-27T05:53:02.077Z,308
2017-08-27T05:53:42.647Z,308
2017-08-27T05:54:23.218Z,308
2017-08-27T05:55:03.781Z,312
2017-08-27T05:55:44.334Z,312
2017-08-27T05:56:24.904Z,316
2017-08-27T05:57:05.466Z,320
2017-08-27T05:57:46.033Z,328
2017-08-27T05:58:26.600Z,328
2017-08-27T05:59:07.176Z,328
2017-08-27T05:59:47.737Z,336
2017-08-27T06:00:28.306Z,344
2017-08-27T06:01:08.888Z,348
2017-08-27T06:01:49.480Z,356
2017-08-27T06:02:30.060Z,364
2017-08-27T06:03:10.624Z,368
2017-08-27T06:03:51.207Z,372
2017-08-27T06:04:31.768Z,380
2017-08-27T06:05:12.350Z,384
2017-08-27T06:05:52.917Z,392
2017-08-27T06:06:33.488Z,392
2017-08-27T06:07:14.051Z,392
2017-08-27T06:07:54.616Z,388
2017-08-27T06:08:35.171Z,388
2017-08-27T06:09:15.731Z,384
2017-08-27T06:09:56.301Z,376
2017-08-27T06:10:36.865Z,376
2017-08-27T06:11:17.434Z,368
2017-08-27T06:11:57.993Z,364
2017-08-27T06:12:38.565Z,364
2017-08-27T06:13:19.121Z,360
2017-08-27T06:13:59.661Z,368
2017-08-27T06:14:40.205Z,368
2017-08-27T06:15:20.759Z,376
2017-08-27T06:16:01.331Z,380
2017-08-27T06:16:41.895Z,388
2017-08-27T06:17:22.451Z,388
2017-08-27T06:18:03.025Z,392
2017-08-27T06:18:43.601Z,388
2017-08-27T06:19:24.171Z,392
2017-08-27T06:20:04.734Z,396
2017-08-27T06:20:45.302Z,400
2017-08-27T06:21:25.898Z,404
2017-08-27T06:22:06.499Z,404
2017-08-27T06:22:47.067Z,404
2017-08-27T06:23:27.639Z,400
2017-08-27T06:24:08.208Z,404
2017-08-27T06:24:48.773Z,400
2017-08-27T06:25:29.335Z,404
2017-08-27T06:26:09.902Z,400
2017-08-27T06:26:50.457Z,400
2017-08-27T06:27:31.034Z,400
2017-08-27T06:28:11.616Z,404
2017-08-27T06:28:52.182Z,400
2017-08-27T06:29:32.736Z,400
2017-08-27T06:30:13.292Z,404
2017-08-27T06:30:53.859Z,404
2017-08-27T06:31:34.434Z,404
2017-08-27T06:32:15.004Z,408
2017-08-27T06:32:55.572Z,416
2017-08-27T06:33:36.133Z,416
2017-08-27T06:34:16.700Z,420
2017-08-27T06:34:57.245Z,420
2017-08-27T06:35:37.812Z,420
2017-08-27T06:36:18.375Z,424
2017-08-27T06:36:58.925Z,420
2017-08-27T06:37:39.496Z,424
2017-08-27T06:38:20.061Z,428
2017-08-27T06:39:00.617Z,432
2017-08-27T06:39:41.178Z,432
2017-08-27T06:40:21.753Z,432
2017-08-27T06:41:02.301Z,432
2017-08-27T06:41:42.878Z,428
2017-08-27T06:42:23.445Z,424
2017-08-27T06:43:04.021Z,424
2017-08-27T06:43:44.594Z,420
2017-08-27T06:44:25.155Z,424
2017-08-27T06:45:05.733Z,428
2017-08-27T06:45:46.288Z,432
2017-08-27T06:46:26.867Z,448
2017-08-27T06:47:07.438Z,460
2017-08-27T06:47:48.003Z,472
2017-08-27T06:48:28.573Z,480
2017-08-27T06:49:09.141Z,492
2017-08-27T06:49:49.712Z,500
2017-08-27T06:50:30.272Z,516
2017-08-27T06:51:10.846Z,528
2017-08-27T06:51:51.391Z,540
2017-08-27T06:52:31.975Z,552
2017-08-27T06:53:12.520Z,560
2017-08-27T06:53:53.087Z,556
2017-08-27T06:54:33.656Z,552
2017-08-27T06:55:14.229Z,552
2017-08-27T06:55:54.797Z,560
2017-08-27T06:56:35.370Z,564
2017-08-27T06:57:15.956Z,572
2017-08-27T06:57:56.514Z,576
2017-08-27T06:58:37.082Z,584
2017-08-27T06:59:17.656Z,588
2017-08-27T06:59:58.232Z,596
2017-08-27T07:00:38.794Z,604
2017-08-27T07:01:19.378Z,604
2017-08-27T07:01:59.955Z,596
2017-08-27T07:02:40.519Z,596
2017-08-27T07:03:21.075Z,596
2017-08-27T07:04:01.638Z,596
2017-08-27T07:04:42.192Z,596
2017-08-27T07:05:22.753Z,596
2017-08-27T07:06:03.308Z,596
2017-08-27T07:06:43.893Z,596
2017-08-27T07:07:24.460Z,600
2017-08-27T07:08:05.020Z,608
2017-08-27T07:08:45.573Z,616
2017-08-27T07:09:26.143Z,624
2017-08-27T07:10:06.686Z,644
2017-08-27T07:10:47.252Z,656
2017-08-27T07:11:27.824Z,660
2017-08-27T07:12:08.404Z,660
2017-08-27T07:12:48.968Z,668
2017-08-27T07:13:29.529Z,676
2017-08-27T07:14:10.083Z,688
2017-08-27T07:14:50.669Z,700
2017-08-27T07:15:31.227Z,712
2017-08-27T07:16:11.818Z,720
2017-08-27T07:16:52.386Z,724
2017-08-27T07:17:32.946Z,724
2017-08-27T07:18:13.508Z,720
2017-08-27T07:18:54.078Z,720
2017-08-27T07:19:34.648Z,724
2017-08-27T07:20:15.221Z,732
2017-08-27T07:20:55.797Z,740
2017-08-27T07:21:36.381Z,752
2017-08-27T07:22:16.912Z,756
2017-08-27T07:22:57.484Z,764
2017-08-27T07:23:38.050Z,772
2017-08-27T07:24:18.609Z,784
2017-08-27T07:24:59.207Z,804
2017-08-27T07:25:39.700Z,824
2017-08-27T07:26:20.254Z,844
2017-08-27T07:27:00.817Z,872
2017-08-27T07:27:41.675Z,892
2017-08-27T07:28:22.065Z,924
2017-08-27T07:29:03.112Z,964
2017-08-27T07:29:43.671Z,1000
2017-08-27T07:30:24.297Z,1036
2017-08-27T07:31:04.832Z,1068
2017-08-27T07:31:45.362Z,1100
2017-08-27T07:32:25.905Z,1132
2017-08-27T07:33:06.453Z,1164
2017-08-27T07:33:46.990Z,1208
2017-08-27T07:34:27.500Z,1256
2017-08-27T07:35:08.055Z,1312
2017-08-27T07:35:48.681Z,1376
2017-08-27T07:36:29.255Z,1436
2017-08-27T07:37:09.759Z,1548
2017-08-27T07:37:50.301Z,1604
2017-08-27T07:38:30.838Z,1552
2017-08-27T07:39:11.370Z,1540
2017-08-27T07:39:51.912Z,1516
2017-08-27T07:40:32.488Z,1496
2017-08-27T07:41:13.061Z,1468
2017-08-27T07:41:53.633Z,1464
2017-08-27T07:42:34.186Z,1452
2017-08-27T07:43:14.747Z,1464
2017-08-27T07:43:55.310Z,1496
2017-08-27T07:44:35.870Z,1512
2017-08-27T07:45:16.433Z,1528
2017-08-27T07:45:56.974Z,1544
2017-08-27T07:46:37.514Z,1572
2017-08-27T07:47:18.075Z,1588
2017-08-27T07:47:58.631Z,1596
2017-08-27T07:48:39.184Z,1608
2017-08-27T07:49:19.737Z,1632
2017-08-27T07:50:00.297Z,1640
2017-08-27T07:50:40.857Z,1648
2017-08-27T07:51:21.397Z,1660
2017-08-27T07:52:01.979Z,1668
2017-08-27T07:52:42.558Z,1684
2017-08-27T07:53:23.124Z,1692
2017-08-27T07:54:03.633Z,1696
2017-08-27T07:54:44.213Z,1716
2017-08-27T07:55:24.757Z,1724
2017-08-27T07:56:05.982Z,1724
2017-08-27T07:56:46.556Z,1708
2017-08-27T07:57:27.135Z,1680
2017-08-27T07:58:07.672Z,1664
2017-08-27T07:58:48.250Z,1640
2017-08-27T07:59:28.804Z,1612
2017-08-27T08:00:09.368Z,1616
2017-08-27T08:00:49.935Z,1600
2017-08-27T08:01:30.507Z,1584
2017-08-27T08:02:11.082Z,1592
2017-08-27T08:02:51.669Z,1616
2017-08-27T08:03:32.232Z,1656
2017-08-27T08:04:12.787Z,1844
2017-08-27T08:04:53.347Z,1708
2017-08-27T08:05:33.914Z,1696
2017-08-27T08:06:14.486Z,1692
2017-08-27T08:06:55.069Z,1692
2017-08-27T08:07:35.619Z,1684
2017-08-27T08:08:16.166Z,1664
2017-08-27T08:08:56.736Z,1696
2017-08-27T08:09:37.294Z,1720
2017-08-27T08:10:17.857Z,1768
2017-08-27T08:10:58.441Z,1808
2017-08-27T08:11:39.011Z,1824
2017-08-27T08:12:19.596Z,1872
2017-08-27T08:13:00.175Z,2068
2017-08-27T08:13:40.751Z,2184
2017-08-27T08:14:21.250Z,2216
2017-08-27T08:15:01.868Z,2240
2017-08-27T08:15:42.372Z,2140
2017-08-27T08:16:22.924Z,2336
2017-08-27T08:17:03.492Z,2424
2017-08-27T08:17:44.030Z,2456
2017-08-27T08:18:24.611Z,2520
2017-08-27T08:19:05.127Z,2528
2017-08-27T08:19:45.670Z,2476
2017-08-27T08:20:26.229Z,2388
2017-08-27T08:21:06.761Z,2240
2017-08-27T08:21:47.355Z,2108
2017-08-27T08:22:27.911Z,2024
2017-08-27T08:23:08.469Z,1952
2017-08-27T08:23:48.977Z,1888
2017-08-27T08:24:29.544Z,1852
2017-08-27T08:25:10.081Z,1800
2017-08-27T08:25:50.666Z,1772
2017-08-27T08:26:31.214Z,1736
2017-08-27T08:27:11.724Z,1688
2017-08-27T08:27:52.285Z,1660
2017-08-27T08:28:32.853Z,1648
2017-08-27T08:29:13.429Z,1640
2017-08-27T08:29:54.004Z,1632
2017-08-27T08:30:34.583Z,1628
2017-08-27T08:31:15.158Z,1620
2017-08-27T08:31:55.731Z,1616
2017-08-27T08:32:36.297Z,1624
2017-08-27T08:33:16.825Z,1624
2017-08-27T08:33:57.374Z,1632
2017-08-27T08:34:37.915Z,1636
2017-08-27T08:35:18.468Z,1628
2017-08-27T08:35:59.015Z,1620
2017-08-27T08:36:39.584Z,1620
2017-08-27T08:37:20.151Z,1620
2017-08-27T08:38:00.738Z,1632
2017-08-27T08:38:41.330Z,1628
2017-08-27T08:39:21.895Z,1636
2017-08-27T08:40:02.436Z,1644
2017-08-27T08:40:43.001Z,1648
2017-08-27T08:41:23.558Z,1648
2017-08-27T08:42:04.146Z,1648
2017-08-27T08:42:44.706Z,1656
2017-08-27T08:43:25.282Z,1664
2017-08-27T08:44:05.850Z,1680
2017-08-27T08:44:46.422Z,1680
2017-08-27T08:45:27.006Z,1672
2017-08-27T08:46:07.573Z,1672
2017-08-27T08:46:48.144Z,1680
2017-08-27T08:47:28.669Z,1704
2017-08-27T08:48:09.238Z,1732
2017-08-27T08:48:49.797Z,1768
2017-08-27T08:49:30.353Z,1808
2017-08-27T08:50:10.903Z,1836
2017-08-27T08:50:51.452Z,1876
2017-08-27T08:51:32.023Z,1912
2017-08-27T08:52:12.589Z,1948
2017-08-27T08:52:53.159Z,1980
2017-08-27T08:53:33.729Z,1988
2017-08-27T08:54:14.288Z,1988
2017-08-27T08:54:54.840Z,1984
2017-08-27T08:55:35.405Z,1984
2017-08-27T08:56:15.955Z,1972
2017-08-27T08:56:56.519Z,1968
2017-08-27T08:57:37.101Z,1968
2017-08-27T08:58:17.680Z,1964
2017-08-27T08:58:58.256Z,1956
2017-08-27T08:59:38.814Z,1952
2017-08-27T09:00:19.374Z,1948
2017-08-27T09:00:59.933Z,1940
2017-08-27T09:01:40.483Z,1924
2017-08-27T09:02:21.105Z,1908
2017-08-27T09:03:01.672Z,1880
2017-08-27T09:03:42.228Z,1844
2017-08-27T09:04:22.790Z,1816
2017-08-27T09:05:03.366Z,1808
2017-08-27T09:05:43.941Z,1816
2017-08-27T09:06:24.498Z,1832
2017-08-27T09:07:05.080Z,1856
2017-08-27T09:07:45.639Z,1884
2017-08-27T09:08:26.321Z,1880
2017-08-27T09:09:06.806Z,1884
2017-08-27T09:09:47.403Z,1884
2017-08-27T09:10:27.964Z,1840
2017-08-27T09:11:08.547Z,1820
2017-08-27T09:11:49.126Z,1860
2017-08-27T09:12:29.711Z,1976
2017-08-27T09:13:10.277Z,1920
2017-08-27T09:13:50.855Z,2060
2017-08-27T09:14:31.422Z,2016
2017-08-27T09:15:11.988Z,1984
2017-08-27T09:15:52.534Z,2064
2017-08-27T09:16:33.097Z,2048
2017-08-27T09:17:13.648Z,1872
2017-08-27T09:17:54.218Z,1824
2017-08-27T09:18:34.789Z,1736
2017-08-27T09:19:15.363Z,1692
2017-08-27T09:19:55.933Z,1696
2017-08-27T09:20:36.513Z,1680
2017-08-27T09:21:17.066Z,1688
2017-08-27T09:21:57.635Z,1680
2017-08-27T09:22:38.189Z,1656
2017-08-27T09:23:18.764Z,1660
2017-08-27T09:23:59.323Z,1684
2017-08-27T09:24:39.894Z,1716
2017-08-27T09:25:20.465Z,1728
2017-08-27T09:26:01.039Z,1736
2017-08-27T09:26:41.612Z,1768
2017-08-27T09:27:22.194Z,1832
2017-08-27T09:28:02.753Z,2020
2017-08-27T09:28:43.304Z,2144
2017-08-27T09:29:23.850Z,2140
2017-08-27T09:30:04.419Z,2188
2017-08-27T09:30:44.992Z,2192
2017-08-27T09:31:25.584Z,2196
2017-08-27T09:32:06.120Z,2076
2017-08-27T09:32:46.706Z,2068
2017-08-27T09:33:27.271Z,2048